sensor_id;sensor_type;location;lat;lon;timestamp;temperature;humidity
63317;DHT22;49822;41.468;13.560;2024-03-07T00:00:09;7.40;86.80
63317;DHT22;49822;41.468;13.560;2024-03-07T00:03:02;7.30;86.60
63317;DHT22;49822;41.468;13.560;2024-03-07T00:05:29;7.30;86.80
63317;DHT22;49822;41.468;13.560;2024-03-07T00:07:55;7.50;86.90
63317;DHT22;49822;41.468;13.560;2024-03-07T00:10:22;7.60;86.80
63317;DHT22;49822;41.468;13.560;2024-03-07T00:13:07;7.50;85.30
63317;DHT22;49822;41.468;13.560;2024-03-07T00:15:33;7.00;85.40
63317;DHT22;49822;41.468;13.560;2024-03-07T00:18:00;7.00;86.50
63317;DHT22;49822;41.468;13.560;2024-03-07T00:20:26;7.10;87.00
63317;DHT22;49822;41.468;13.560;2024-03-07T00:22:52;6.90;86.60
63317;DHT22;49822;41.468;13.560;2024-03-07T00:25:18;6.90;86.90
63317;DHT22;49822;41.468;13.560;2024-03-07T00:27:46;6.80;86.90
63317;DHT22;49822;41.468;13.560;2024-03-07T00:30:12;6.50;87.00
63317;DHT22;49822;41.468;13.560;2024-03-07T00:32:44;6.50;87.80
63317;DHT22;49822;41.468;13.560;2024-03-07T00:35:11;6.30;88.50
63317;DHT22;49822;41.468;13.560;2024-03-07T00:37:37;6.70;88.60
63317;DHT22;49822;41.468;13.560;2024-03-07T00:40:03;6.80;88.40
63317;DHT22;49822;41.468;13.560;2024-03-07T00:42:30;6.90;88.40
63317;DHT22;49822;41.468;13.560;2024-03-07T00:44:56;6.90;87.60
63317;DHT22;49822;41.468;13.560;2024-03-07T00:47:22;6.90;86.60
63317;DHT22;49822;41.468;13.560;2024-03-07T00:49:49;6.70;86.80
63317;DHT22;49822;41.468;13.560;2024-03-07T00:52:15;6.60;86.70
63317;DHT22;49822;41.468;13.560;2024-03-07T00:54:41;6.40;87.20
63317;DHT22;49822;41.468;13.560;2024-03-07T00:57:08;6.50;88.00
63317;DHT22;49822;41.468;13.560;2024-03-07T00:59:34;6.50;88.20
63317;DHT22;49822;41.468;13.560;2024-03-07T01:02:01;6.80;88.30
63317;DHT22;49822;41.468;13.560;2024-03-07T01:04:27;6.80;88.50
63317;DHT22;49822;41.468;13.560;2024-03-07T01:06:57;6.90;87.80
63317;DHT22;49822;41.468;13.560;2024-03-07T01:09:24;6.80;87.20
63317;DHT22;49822;41.468;13.560;2024-03-07T01:11:50;6.60;87.40
63317;DHT22;49822;41.468;13.560;2024-03-07T01:14:16;6.90;87.50
63317;DHT22;49822;41.468;13.560;2024-03-07T01:16:42;6.90;87.40
63317;DHT22;49822;41.468;13.560;2024-03-07T01:19:08;6.90;86.80
63317;DHT22;49822;41.468;13.560;2024-03-07T01:21:34;6.90;86.80
63317;DHT22;49822;41.468;13.560;2024-03-07T01:24:04;7.00;87.10
63317;DHT22;49822;41.468;13.560;2024-03-07T01:26:31;6.90;86.90
63317;DHT22;49822;41.468;13.560;2024-03-07T01:28:59;6.70;86.80
63317;DHT22;49822;41.468;13.560;2024-03-07T01:31:25;6.80;87.00
63317;DHT22;49822;41.468;13.560;2024-03-07T01:33:52;6.80;86.40
63317;DHT22;49822;41.468;13.560;2024-03-07T01:36:19;6.50;86.30
63317;DHT22;49822;41.468;13.560;2024-03-07T01:38:46;6.70;86.70
63317;DHT22;49822;41.468;13.560;2024-03-07T01:41:12;6.30;86.60
63317;DHT22;49822;41.468;13.560;2024-03-07T01:43:40;6.20;87.50
63317;DHT22;49822;41.468;13.560;2024-03-07T01:46:07;6.40;88.00
63317;DHT22;49822;41.468;13.560;2024-03-07T01:48:34;6.20;88.10
63317;DHT22;49822;41.468;13.560;2024-03-07T01:51:02;6.20;87.50
63317;DHT22;49822;41.468;13.560;2024-03-07T01:53:30;6.00;87.80
63317;DHT22;49822;41.468;13.560;2024-03-07T01:55:57;6.10;88.70
63317;DHT22;49822;41.468;13.560;2024-03-07T01:58:24;6.00;88.80
63317;DHT22;49822;41.468;13.560;2024-03-07T02:00:51;6.20;88.80
63317;DHT22;49822;41.468;13.560;2024-03-07T02:03:19;6.10;88.90
63317;DHT22;49822;41.468;13.560;2024-03-07T02:05:45;6.30;88.70
63317;DHT22;49822;41.468;13.560;2024-03-07T02:08:12;6.30;88.80
63317;DHT22;49822;41.468;13.560;2024-03-07T02:10:38;6.30;88.40
63317;DHT22;49822;41.468;13.560;2024-03-07T02:13:05;6.50;88.20
63317;DHT22;49822;41.468;13.560;2024-03-07T02:15:31;6.40;88.00
63317;DHT22;49822;41.468;13.560;2024-03-07T02:17:58;6.20;86.90
63317;DHT22;49822;41.468;13.560;2024-03-07T02:20:24;6.10;87.30
63317;DHT22;49822;41.468;13.560;2024-03-07T02:22:51;6.10;88.10
63317;DHT22;49822;41.468;13.560;2024-03-07T02:25:17;6.10;88.40
63317;DHT22;49822;41.468;13.560;2024-03-07T02:27:43;6.00;88.30
63317;DHT22;49822;41.468;13.560;2024-03-07T02:30:12;6.40;87.70
63317;DHT22;49822;41.468;13.560;2024-03-07T02:32:38;6.20;87.50
63317;DHT22;49822;41.468;13.560;2024-03-07T02:35:05;6.40;87.50
63317;DHT22;49822;41.468;13.560;2024-03-07T02:37:31;6.40;87.40
63317;DHT22;49822;41.468;13.560;2024-03-07T02:39:59;6.40;87.40
63317;DHT22;49822;41.468;13.560;2024-03-07T02:42:25;6.40;87.40
63317;DHT22;49822;41.468;13.560;2024-03-07T02:44:51;6.30;87.20
63317;DHT22;49822;41.468;13.560;2024-03-07T02:47:19;6.30;87.40
63317;DHT22;49822;41.468;13.560;2024-03-07T02:49:45;6.30;87.30
63317;DHT22;49822;41.468;13.560;2024-03-07T02:52:11;6.50;87.20
63317;DHT22;49822;41.468;13.560;2024-03-07T02:54:38;6.00;86.10
63317;DHT22;49822;41.468;13.560;2024-03-07T02:57:04;5.80;87.00
63317;DHT22;49822;41.468;13.560;2024-03-07T02:59:31;5.60;88.10
63317;DHT22;49822;41.468;13.560;2024-03-07T03:01:57;5.50;88.90
63317;DHT22;49822;41.468;13.560;2024-03-07T03:04:23;5.40;89.50
63317;DHT22;49822;41.468;13.560;2024-03-07T03:06:50;5.40;90.10
63317;DHT22;49822;41.468;13.560;2024-03-07T03:09:16;5.40;90.40
63317;DHT22;49822;41.468;13.560;2024-03-07T03:11:46;5.60;90.60
63317;DHT22;49822;41.468;13.560;2024-03-07T03:14:13;5.60;89.50
63317;DHT22;49822;41.468;13.560;2024-03-07T03:16:42;5.40;89.40
63317;DHT22;49822;41.468;13.560;2024-03-07T03:19:11;5.50;89.80
63317;DHT22;49822;41.468;13.560;2024-03-07T03:21:38;5.70;89.90
63317;DHT22;49822;41.468;13.560;2024-03-07T03:24:04;6.00;89.70
63317;DHT22;49822;41.468;13.560;2024-03-07T03:26:30;6.10;89.20
63317;DHT22;49822;41.468;13.560;2024-03-07T03:28:59;6.10;89.10
63317;DHT22;49822;41.468;13.560;2024-03-07T03:31:26;6.20;88.90
63317;DHT22;49822;41.468;13.560;2024-03-07T03:33:52;6.10;88.70
63317;DHT22;49822;41.468;13.560;2024-03-07T03:36:18;6.20;89.20
63317;DHT22;49822;41.468;13.560;2024-03-07T03:38:45;6.30;88.80
63317;DHT22;49822;41.468;13.560;2024-03-07T03:41:16;6.30;88.90
63317;DHT22;49822;41.468;13.560;2024-03-07T03:43:42;6.50;88.90
63317;DHT22;49822;41.468;13.560;2024-03-07T03:46:12;6.60;89.00
63317;DHT22;49822;41.468;13.560;2024-03-07T03:48:41;6.70;88.70
63317;DHT22;49822;41.468;13.560;2024-03-07T03:51:10;6.70;88.60
63317;DHT22;49822;41.468;13.560;2024-03-07T03:53:39;6.50;87.90
63317;DHT22;49822;41.468;13.560;2024-03-07T03:56:06;6.40;87.10
63317;DHT22;49822;41.468;13.560;2024-03-07T03:58:39;6.20;87.30
63317;DHT22;49822;41.468;13.560;2024-03-07T04:01:05;6.20;88.00
63317;DHT22;49822;41.468;13.560;2024-03-07T04:03:34;6.10;88.20
63317;DHT22;49822;41.468;13.560;2024-03-07T04:06:00;6.30;88.40
63317;DHT22;49822;41.468;13.560;2024-03-07T04:08:26;6.40;88.40
63317;DHT22;49822;41.468;13.560;2024-03-07T04:10:53;6.30;88.30
63317;DHT22;49822;41.468;13.560;2024-03-07T04:13:20;6.30;88.50
63317;DHT22;49822;41.468;13.560;2024-03-07T04:15:48;6.30;88.40
63317;DHT22;49822;41.468;13.560;2024-03-07T04:18:15;6.40;88.50
63317;DHT22;49822;41.468;13.560;2024-03-07T04:20:41;6.40;88.50
63317;DHT22;49822;41.468;13.560;2024-03-07T04:23:09;6.30;88.30
63317;DHT22;49822;41.468;13.560;2024-03-07T04:25:35;6.40;88.00
63317;DHT22;49822;41.468;13.560;2024-03-07T04:28:02;6.40;88.20
63317;DHT22;49822;41.468;13.560;2024-03-07T04:30:28;6.30;88.50
63317;DHT22;49822;41.468;13.560;2024-03-07T04:32:55;6.20;88.80
63317;DHT22;49822;41.468;13.560;2024-03-07T04:35:20;6.10;88.80
63317;DHT22;49822;41.468;13.560;2024-03-07T04:37:47;6.10;88.60
63317;DHT22;49822;41.468;13.560;2024-03-07T04:40:13;5.80;88.90
63317;DHT22;49822;41.468;13.560;2024-03-07T04:42:46;5.60;89.70
63317;DHT22;49822;41.468;13.560;2024-03-07T04:45:13;5.80;90.80
63317;DHT22;49822;41.468;13.560;2024-03-07T04:47:43;5.80;91.10
63317;DHT22;49822;41.468;13.560;2024-03-07T04:50:14;6.00;91.00
63317;DHT22;49822;41.468;13.560;2024-03-07T04:52:43;6.20;90.60
63317;DHT22;49822;41.468;13.560;2024-03-07T04:55:10;6.00;90.20
63317;DHT22;49822;41.468;13.560;2024-03-07T04:57:40;6.20;89.70
63317;DHT22;49822;41.468;13.560;2024-03-07T05:00:08;6.20;89.50
63317;DHT22;49822;41.468;13.560;2024-03-07T05:02:40;6.20;88.80
63317;DHT22;49822;41.468;13.560;2024-03-07T05:05:08;6.10;89.00
63317;DHT22;49822;41.468;13.560;2024-03-07T05:07:34;6.00;89.00
63317;DHT22;49822;41.468;13.560;2024-03-07T05:10:06;6.20;89.00
63317;DHT22;49822;41.468;13.560;2024-03-07T05:12:33;6.10;88.90
63317;DHT22;49822;41.468;13.560;2024-03-07T05:14:59;6.10;88.90
63317;DHT22;49822;41.468;13.560;2024-03-07T05:17:25;6.10;88.70
63317;DHT22;49822;41.468;13.560;2024-03-07T05:19:51;6.30;88.60
63317;DHT22;49822;41.468;13.560;2024-03-07T05:22:17;6.00;87.70
63317;DHT22;49822;41.468;13.560;2024-03-07T05:24:46;5.70;88.40
63317;DHT22;49822;41.468;13.560;2024-03-07T05:27:13;5.50;89.20
63317;DHT22;49822;41.468;13.560;2024-03-07T05:29:39;5.50;89.90
63317;DHT22;49822;41.468;13.560;2024-03-07T05:32:24;5.70;90.50
63317;DHT22;49822;41.468;13.560;2024-03-07T05:34:52;5.80;90.40
63317;DHT22;49822;41.468;13.560;2024-03-07T05:37:21;5.80;90.10
63317;DHT22;49822;41.468;13.560;2024-03-07T05:39:48;5.80;89.60
63317;DHT22;49822;41.468;13.560;2024-03-07T05:42:15;5.70;89.30
63317;DHT22;49822;41.468;13.560;2024-03-07T05:44:41;5.80;89.30
63317;DHT22;49822;41.468;13.560;2024-03-07T05:47:08;5.80;89.00
63317;DHT22;49822;41.468;13.560;2024-03-07T05:49:35;5.80;88.90
63317;DHT22;49822;41.468;13.560;2024-03-07T05:52:04;5.90;88.50
63317;DHT22;49822;41.468;13.560;2024-03-07T05:54:32;6.00;88.30
63317;DHT22;49822;41.468;13.560;2024-03-07T05:56:58;5.90;88.40
63317;DHT22;49822;41.468;13.560;2024-03-07T05:59:26;5.90;88.20
63317;DHT22;49822;41.468;13.560;2024-03-07T06:01:54;5.60;87.70
63317;DHT22;49822;41.468;13.560;2024-03-07T06:04:21;5.30;89.20
63317;DHT22;49822;41.468;13.560;2024-03-07T06:06:47;5.30;90.10
63317;DHT22;49822;41.468;13.560;2024-03-07T06:09:15;5.50;90.50
63317;DHT22;49822;41.468;13.560;2024-03-07T06:11:47;5.70;90.40
63317;DHT22;49822;41.468;13.560;2024-03-07T06:14:14;5.80;90.00
63317;DHT22;49822;41.468;13.560;2024-03-07T06:16:42;5.80;89.70
63317;DHT22;49822;41.468;13.560;2024-03-07T06:19:09;6.00;89.10
63317;DHT22;49822;41.468;13.560;2024-03-07T06:21:39;5.80;88.20
63317;DHT22;49822;41.468;13.560;2024-03-07T06:24:06;5.50;89.40
63317;DHT22;49822;41.468;13.560;2024-03-07T06:26:36;5.70;90.40
63317;DHT22;49822;41.468;13.560;2024-03-07T06:29:09;5.60;90.70
63317;DHT22;49822;41.468;13.560;2024-03-07T06:31:37;5.70;90.50
63317;DHT22;49822;41.468;13.560;2024-03-07T06:34:05;5.80;91.10
63317;DHT22;49822;41.468;13.560;2024-03-07T06:36:34;6.20;91.40
63317;DHT22;49822;41.468;13.560;2024-03-07T06:39:00;6.40;91.00
63317;DHT22;49822;41.468;13.560;2024-03-07T06:41:27;6.50;90.50
63317;DHT22;49822;41.468;13.560;2024-03-07T06:43:53;6.90;90.10
63317;DHT22;49822;41.468;13.560;2024-03-07T06:46:21;6.80;89.80
63317;DHT22;49822;41.468;13.560;2024-03-07T06:48:47;7.20;89.50
63317;DHT22;49822;41.468;13.560;2024-03-07T06:51:13;7.20;89.00
63317;DHT22;49822;41.468;13.560;2024-03-07T06:53:39;7.40;88.50
63317;DHT22;49822;41.468;13.560;2024-03-07T06:56:05;7.60;88.30
63317;DHT22;49822;41.468;13.560;2024-03-07T06:58:32;7.60;88.00
63317;DHT22;49822;41.468;13.560;2024-03-07T07:00:59;7.80;87.70
63317;DHT22;49822;41.468;13.560;2024-03-07T07:03:28;7.90;87.20
63317;DHT22;49822;41.468;13.560;2024-03-07T07:05:54;7.90;87.00
63317;DHT22;49822;41.468;13.560;2024-03-07T07:08:21;8.10;87.20
63317;DHT22;49822;41.468;13.560;2024-03-07T07:10:48;8.30;87.30
63317;DHT22;49822;41.468;13.560;2024-03-07T07:13:14;8.20;87.30
63317;DHT22;49822;41.468;13.560;2024-03-07T07:15:42;8.50;87.20
63317;DHT22;49822;41.468;13.560;2024-03-07T07:18:12;8.70;86.90
63317;DHT22;49822;41.468;13.560;2024-03-07T07:20:39;8.70;86.60
63317;DHT22;49822;41.468;13.560;2024-03-07T07:23:06;8.70;86.60
63317;DHT22;49822;41.468;13.560;2024-03-07T07:25:32;9.00;86.20
63317;DHT22;49822;41.468;13.560;2024-03-07T07:27:58;9.10;86.00
63317;DHT22;49822;41.468;13.560;2024-03-07T07:30:25;9.30;86.10
63317;DHT22;49822;41.468;13.560;2024-03-07T07:32:53;9.40;86.30
63317;DHT22;49822;41.468;13.560;2024-03-07T07:35:20;9.60;86.30
63317;DHT22;49822;41.468;13.560;2024-03-07T07:37:47;9.60;86.00
63317;DHT22;49822;41.468;13.560;2024-03-07T07:40:16;9.70;86.10
63317;DHT22;49822;41.468;13.560;2024-03-07T07:42:44;9.90;85.70
63317;DHT22;49822;41.468;13.560;2024-03-07T07:45:13;10.00;85.70
63317;DHT22;49822;41.468;13.560;2024-03-07T07:47:50;10.10;85.70
63317;DHT22;49822;41.468;13.560;2024-03-07T07:50:22;10.20;85.50
63317;DHT22;49822;41.468;13.560;2024-03-07T07:52:50;10.40;85.00
63317;DHT22;49822;41.468;13.560;2024-03-07T07:55:41;10.60;84.80
63317;DHT22;49822;41.468;13.560;2024-03-07T07:58:19;10.70;84.80
63317;DHT22;49822;41.468;13.560;2024-03-07T08:04:11;11.00;84.10
63317;DHT22;49822;41.468;13.560;2024-03-07T08:06:37;11.20;84.00
63317;DHT22;49822;41.468;13.560;2024-03-07T08:09:03;11.30;83.80
63317;DHT22;49822;41.468;13.560;2024-03-07T08:15:21;11.60;82.10
63317;DHT22;49822;41.468;13.560;2024-03-07T08:17:48;11.60;82.20
63317;DHT22;49822;41.468;13.560;2024-03-07T08:24:12;11.70;82.20
63317;DHT22;49822;41.468;13.560;2024-03-07T08:33:59;12.00;82.00
63317;DHT22;49822;41.468;13.560;2024-03-07T08:36:25;12.00;81.60
63317;DHT22;49822;41.468;13.560;2024-03-07T08:38:51;12.00;81.60
63317;DHT22;49822;41.468;13.560;2024-03-07T08:41:18;12.20;81.60
63317;DHT22;49822;41.468;13.560;2024-03-07T08:43:44;12.40;81.30
63317;DHT22;49822;41.468;13.560;2024-03-07T08:46:11;12.50;80.70
63317;DHT22;49822;41.468;13.560;2024-03-07T08:48:39;12.60;80.40
63317;DHT22;49822;41.468;13.560;2024-03-07T08:51:05;12.70;80.20
63317;DHT22;49822;41.468;13.560;2024-03-07T08:53:32;12.80;80.00
63317;DHT22;49822;41.468;13.560;2024-03-07T08:55:59;12.70;79.00
63317;DHT22;49822;41.468;13.560;2024-03-07T08:58:41;12.80;79.40
63317;DHT22;49822;41.468;13.560;2024-03-07T09:01:13;13.00;79.80
63317;DHT22;49822;41.468;13.560;2024-03-07T09:03:40;13.20;79.40
63317;DHT22;49822;41.468;13.560;2024-03-07T09:06:06;13.20;77.80
63317;DHT22;49822;41.468;13.560;2024-03-07T09:08:33;13.20;78.00
63317;DHT22;49822;41.468;13.560;2024-03-07T09:11:03;13.40;78.30
63317;DHT22;49822;41.468;13.560;2024-03-07T09:13:29;13.50;78.30
63317;DHT22;49822;41.468;13.560;2024-03-07T09:15:58;13.70;79.20
63317;DHT22;49822;41.468;13.560;2024-03-07T09:18:26;13.80;78.30
63317;DHT22;49822;41.468;13.560;2024-03-07T09:20:54;14.00;77.90
63317;DHT22;49822;41.468;13.560;2024-03-07T09:23:20;14.10;77.20
63317;DHT22;49822;41.468;13.560;2024-03-07T09:25:46;14.20;76.60
63317;DHT22;49822;41.468;13.560;2024-03-07T09:28:13;14.30;76.70
63317;DHT22;49822;41.468;13.560;2024-03-07T09:30:41;14.40;76.50
63317;DHT22;49822;41.468;13.560;2024-03-07T09:33:13;14.40;74.40
63317;DHT22;49822;41.468;13.560;2024-03-07T09:35:42;14.50;75.60
63317;DHT22;49822;41.468;13.560;2024-03-07T09:38:09;14.70;76.30
63317;DHT22;49822;41.468;13.560;2024-03-07T09:40:35;14.90;75.50
63317;DHT22;49822;41.468;13.560;2024-03-07T09:43:01;15.20;75.70
63317;DHT22;49822;41.468;13.560;2024-03-07T09:45:30;15.30;74.40
63317;DHT22;49822;41.468;13.560;2024-03-07T09:47:59;15.60;73.40
63317;DHT22;49822;41.468;13.560;2024-03-07T09:50:26;15.70;73.50
63317;DHT22;49822;41.468;13.560;2024-03-07T09:52:55;15.80;73.10
63317;DHT22;49822;41.468;13.560;2024-03-07T09:55:22;15.80;71.10
63317;DHT22;49822;41.468;13.560;2024-03-07T09:57:58;15.80;71.10
63317;DHT22;49822;41.468;13.560;2024-03-07T10:00:28;15.70;71.00
63317;DHT22;49822;41.468;13.560;2024-03-07T10:03:03;15.80;71.90
63317;DHT22;49822;41.468;13.560;2024-03-07T10:05:31;15.70;71.90
63317;DHT22;49822;41.468;13.560;2024-03-07T10:07:59;15.70;71.50
63317;DHT22;49822;41.468;13.560;2024-03-07T10:10:25;15.70;72.10
63317;DHT22;49822;41.468;13.560;2024-03-07T10:12:52;15.70;71.20
63317;DHT22;49822;41.468;13.560;2024-03-07T10:15:19;15.70;70.30
63317;DHT22;49822;41.468;13.560;2024-03-07T10:17:46;16.00;71.30
63317;DHT22;49822;41.468;13.560;2024-03-07T10:20:19;16.10;68.50
63317;DHT22;49822;41.468;13.560;2024-03-07T10:22:55;16.00;68.20
63317;DHT22;49822;41.468;13.560;2024-03-07T10:25:24;15.70;66.00
63317;DHT22;49822;41.468;13.560;2024-03-07T10:27:53;15.60;66.60
63317;DHT22;49822;41.468;13.560;2024-03-07T10:30:21;15.60;66.40
63317;DHT22;49822;41.468;13.560;2024-03-07T10:32:57;15.10;65.60
63317;DHT22;49822;41.468;13.560;2024-03-07T10:36:10;14.70;66.50
63317;DHT22;49822;41.468;13.560;2024-03-07T10:42:29;15.40;65.80
63317;DHT22;49822;41.468;13.560;2024-03-07T10:45:04;15.50;65.20
63317;DHT22;49822;41.468;13.560;2024-03-07T10:47:41;15.90;64.70
63317;DHT22;49822;41.468;13.560;2024-03-07T10:50:24;15.90;64.70
63317;DHT22;49822;41.468;13.560;2024-03-07T10:53:08;16.00;64.60
63317;DHT22;49822;41.468;13.560;2024-03-07T11:01:20;16.10;64.80
63317;DHT22;49822;41.468;13.560;2024-03-07T11:03:50;16.50;64.00
63317;DHT22;49822;41.468;13.560;2024-03-07T11:06:23;17.00;64.20
63317;DHT22;49822;41.468;13.560;2024-03-07T11:08:55;17.10;63.20
63317;DHT22;49822;41.468;13.560;2024-03-07T11:11:23;16.70;61.60
63317;DHT22;49822;41.468;13.560;2024-03-07T11:13:51;16.80;63.50
63317;DHT22;49822;41.468;13.560;2024-03-07T11:16:22;16.30;61.00
63317;DHT22;49822;41.468;13.560;2024-03-07T11:19:49;16.30;61.30
63317;DHT22;49822;41.468;13.560;2024-03-07T11:22:03;16.20;61.60
63317;DHT22;49822;41.468;13.560;2024-03-07T11:24:41;16.30;63.00
63317;DHT22;49822;41.468;13.560;2024-03-07T11:27:11;16.50;63.30
63317;DHT22;49822;41.468;13.560;2024-03-07T11:29:50;16.80;62.40
63317;DHT22;49822;41.468;13.560;2024-03-07T11:32:23;17.00;62.90
63317;DHT22;49822;41.468;13.560;2024-03-07T11:34:54;17.30;62.70
63317;DHT22;49822;41.468;13.560;2024-03-07T11:37:38;17.40;61.40
63317;DHT22;49822;41.468;13.560;2024-03-07T11:43:11;17.20;60.60
63317;DHT22;49822;41.468;13.560;2024-03-07T11:45:40;17.40;61.90
63317;DHT22;49822;41.468;13.560;2024-03-07T11:48:18;17.60;62.20
63317;DHT22;49822;41.468;13.560;2024-03-07T11:50:46;17.80;59.70
63317;DHT22;49822;41.468;13.560;2024-03-07T11:53:16;17.80;59.00
63317;DHT22;49822;41.468;13.560;2024-03-07T11:55:43;17.70;59.30
63317;DHT22;49822;41.468;13.560;2024-03-07T11:58:17;17.70;59.30
63317;DHT22;49822;41.468;13.560;2024-03-07T12:00:46;17.90;60.00
63317;DHT22;49822;41.468;13.560;2024-03-07T12:03:16;18.10;60.50
63317;DHT22;49822;41.468;13.560;2024-03-07T12:05:51;18.30;60.40
63317;DHT22;49822;41.468;13.560;2024-03-07T12:08:27;18.80;59.70
63317;DHT22;49822;41.468;13.560;2024-03-07T12:10:54;19.10;58.90
63317;DHT22;49822;41.468;13.560;2024-03-07T12:13:23;19.20;58.70
63317;DHT22;49822;41.468;13.560;2024-03-07T12:15:53;18.90;57.70
63317;DHT22;49822;41.468;13.560;2024-03-07T12:18:22;18.80;58.80
63317;DHT22;49822;41.468;13.560;2024-03-07T12:20:49;18.90;59.00
63317;DHT22;49822;41.468;13.560;2024-03-07T12:23:25;18.40;57.60
63317;DHT22;49822;41.468;13.560;2024-03-07T12:26:04;18.30;58.70
63317;DHT22;49822;41.468;13.560;2024-03-07T12:28:30;18.40;58.00
63317;DHT22;49822;41.468;13.560;2024-03-07T12:31:01;18.50;58.90
63317;DHT22;49822;41.468;13.560;2024-03-07T12:33:37;18.60;58.60
63317;DHT22;49822;41.468;13.560;2024-03-07T12:36:08;18.60;58.90
63317;DHT22;49822;41.468;13.560;2024-03-07T12:38:37;18.80;57.80
63317;DHT22;49822;41.468;13.560;2024-03-07T12:41:08;18.90;57.40
63317;DHT22;49822;41.468;13.560;2024-03-07T12:43:40;19.10;58.00
63317;DHT22;49822;41.468;13.560;2024-03-07T12:46:13;19.20;58.70
63317;DHT22;49822;41.468;13.560;2024-03-07T12:48:41;19.00;57.90
63317;DHT22;49822;41.468;13.560;2024-03-07T12:51:10;18.60;58.20
63317;DHT22;49822;41.468;13.560;2024-03-07T12:53:37;18.10;60.00
63317;DHT22;49822;41.468;13.560;2024-03-07T12:56:03;17.90;59.80
63317;DHT22;49822;41.468;13.560;2024-03-07T12:58:29;18.00;59.60
63317;DHT22;49822;41.468;13.560;2024-03-07T13:00:58;18.20;59.50
63317;DHT22;49822;41.468;13.560;2024-03-07T13:03:26;18.70;58.90
63317;DHT22;49822;41.468;13.560;2024-03-07T13:05:59;19.00;57.80
63317;DHT22;49822;41.468;13.560;2024-03-07T13:08:31;19.10;57.10
63317;DHT22;49822;41.468;13.560;2024-03-07T13:10:57;19.20;55.90
63317;DHT22;49822;41.468;13.560;2024-03-07T13:13:27;19.00;57.90
63317;DHT22;49822;41.468;13.560;2024-03-07T13:15:56;19.00;59.10
63317;DHT22;49822;41.468;13.560;2024-03-07T13:18:23;19.30;59.20
63317;DHT22;49822;41.468;13.560;2024-03-07T13:20:49;19.60;58.90
63317;DHT22;49822;41.468;13.560;2024-03-07T13:23:16;19.90;58.70
63317;DHT22;49822;41.468;13.560;2024-03-07T13:25:42;19.90;57.80
63317;DHT22;49822;41.468;13.560;2024-03-07T13:28:14;20.20;58.80
63317;DHT22;49822;41.468;13.560;2024-03-07T13:30:53;20.50;57.10
63317;DHT22;49822;41.468;13.560;2024-03-07T13:33:21;20.70;57.00
63317;DHT22;49822;41.468;13.560;2024-03-07T13:35:49;21.00;56.20
63317;DHT22;49822;41.468;13.560;2024-03-07T13:38:17;21.10;55.60
63317;DHT22;49822;41.468;13.560;2024-03-07T13:40:44;21.40;55.60
63317;DHT22;49822;41.468;13.560;2024-03-07T13:43:11;21.30;54.20
63317;DHT22;49822;41.468;13.560;2024-03-07T13:45:38;21.10;53.80
63317;DHT22;49822;41.468;13.560;2024-03-07T13:48:07;20.80;53.30
63317;DHT22;49822;41.468;13.560;2024-03-07T13:50:35;20.70;54.40
63317;DHT22;49822;41.468;13.560;2024-03-07T13:53:03;20.90;55.70
63317;DHT22;49822;41.468;13.560;2024-03-07T14:01:37;20.90;54.20
63317;DHT22;49822;41.468;13.560;2024-03-07T14:10:42;21.10;57.10
63317;DHT22;49822;41.468;13.560;2024-03-07T14:30:54;21.50;53.00
63317;DHT22;49822;41.468;13.560;2024-03-07T14:33:35;21.20;52.20
63317;DHT22;49822;41.468;13.560;2024-03-07T14:36:14;21.20;52.90
63317;DHT22;49822;41.468;13.560;2024-03-07T14:38:57;21.00;53.10
63317;DHT22;49822;41.468;13.560;2024-03-07T14:41:51;21.00;53.90
63317;DHT22;49822;41.468;13.560;2024-03-07T14:44:18;20.80;55.30
63317;DHT22;49822;41.468;13.560;2024-03-07T14:46:48;20.70;55.10
63317;DHT22;49822;41.468;13.560;2024-03-07T14:49:19;20.70;53.80
63317;DHT22;49822;41.468;13.560;2024-03-07T14:51:46;20.80;55.00
63317;DHT22;49822;41.468;13.560;2024-03-07T14:54:15;21.40;55.90
63317;DHT22;49822;41.468;13.560;2024-03-07T14:56:41;22.20;54.10
63317;DHT22;49822;41.468;13.560;2024-03-07T14:59:08;22.80;54.20
63317;DHT22;49822;41.468;13.560;2024-03-07T15:01:34;23.10;54.10
63317;DHT22;49822;41.468;13.560;2024-03-07T15:04:01;23.80;52.90
63317;DHT22;49822;41.468;13.560;2024-03-07T15:06:29;24.20;52.30
63317;DHT22;49822;41.468;13.560;2024-03-07T15:08:57;24.80;50.80
63317;DHT22;49822;41.468;13.560;2024-03-07T15:11:33;25.80;50.20
63317;DHT22;49822;41.468;13.560;2024-03-07T15:14:00;27.10;46.90
63317;DHT22;49822;41.468;13.560;2024-03-07T15:16:27;28.30;45.40
63317;DHT22;49822;41.468;13.560;2024-03-07T15:19:08;28.90;44.10
63317;DHT22;49822;41.468;13.560;2024-03-07T15:25:00;24.90;49.30
63317;DHT22;49822;41.468;13.560;2024-03-07T15:27:28;22.50;52.80
63317;DHT22;49822;41.468;13.560;2024-03-07T15:29:54;20.50;57.70
63317;DHT22;49822;41.468;13.560;2024-03-07T15:32:22;18.40;61.10
63317;DHT22;49822;41.468;13.560;2024-03-07T15:34:48;18.10;63.30
63317;DHT22;49822;41.468;13.560;2024-03-07T15:37:16;17.40;64.60
63317;DHT22;49822;41.468;13.560;2024-03-07T15:39:50;16.80;67.00
63317;DHT22;49822;41.468;13.560;2024-03-07T15:42:17;16.40;68.30
63317;DHT22;49822;41.468;13.560;2024-03-07T15:44:43;16.20;69.40
63317;DHT22;49822;41.468;13.560;2024-03-07T15:47:11;15.80;70.40
63317;DHT22;49822;41.468;13.560;2024-03-07T15:49:38;15.50;71.20
63317;DHT22;49822;41.468;13.560;2024-03-07T15:55:37;15.00;73.60
63317;DHT22;49822;41.468;13.560;2024-03-07T15:58:04;15.00;73.90
63317;DHT22;49822;41.468;13.560;2024-03-07T16:00:32;14.80;73.90
63317;DHT22;49822;41.468;13.560;2024-03-07T16:03:01;14.80;74.10
63317;DHT22;49822;41.468;13.560;2024-03-07T16:05:30;14.70;73.70
63317;DHT22;49822;41.468;13.560;2024-03-07T16:07:58;14.70;73.70
63317;DHT22;49822;41.468;13.560;2024-03-07T16:10:30;14.70;74.00
63317;DHT22;49822;41.468;13.560;2024-03-07T16:12:58;14.60;73.80
63317;DHT22;49822;41.468;13.560;2024-03-07T16:15:26;14.60;73.70
63317;DHT22;49822;41.468;13.560;2024-03-07T16:17:53;14.70;73.70
63317;DHT22;49822;41.468;13.560;2024-03-07T16:20:22;14.70;73.90
63317;DHT22;49822;41.468;13.560;2024-03-07T16:22:48;14.60;74.00
63317;DHT22;49822;41.468;13.560;2024-03-07T16:25:15;14.60;74.10
63317;DHT22;49822;41.468;13.560;2024-03-07T16:27:43;14.60;73.90
63317;DHT22;49822;41.468;13.560;2024-03-07T16:30:12;14.50;73.80
63317;DHT22;49822;41.468;13.560;2024-03-07T16:32:40;14.40;74.10
63317;DHT22;49822;41.468;13.560;2024-03-07T16:35:08;14.50;74.50
63317;DHT22;49822;41.468;13.560;2024-03-07T16:37:39;14.40;74.80
63317;DHT22;49822;41.468;13.560;2024-03-07T16:40:10;14.40;74.80